createdAt,value
2022-12-08T00:01:26.169Z,9.68
2022-12-08T00:03:53.958Z,326.77
2022-12-08T00:06:46.652Z,523.63
2022-12-08T00:09:23.458Z,121.07
2022-12-08T00:11:59.768Z,280.15
2022-12-08T00:14:30.658Z,410.35
2022-12-08T00:16:59.128Z,82.47
2022-12-08T00:19:27.475Z,107.32
2022-12-08T00:21:55.282Z,97.78
2022-12-08T00:24:24.401Z,42.75
2022-12-08T00:26:51.708Z,15.63
2022-12-08T00:29:19.236Z,13.93
2022-12-08T00:31:46.440Z,14.15
2022-12-08T00:34:15.278Z,21.35
2022-12-08T00:36:43.439Z,20.05
2022-12-08T00:39:15.107Z,25.77
2022-12-08T00:42:00.694Z,22.95
2022-12-08T00:46:55.305Z,18.30
2022-12-08T00:49:22.444Z,12.60
2022-12-08T00:51:49.662Z,23.70
2022-12-08T00:54:17.539Z,21.48
2022-12-08T00:56:44.910Z,22.17
2022-12-08T00:59:12.376Z,12.77
2022-12-08T01:01:39.626Z,10.38
2022-12-08T01:04:13.242Z,17.40
2022-12-08T01:06:40.544Z,15.23
2022-12-08T01:09:09.097Z,20.65
2022-12-08T01:11:40.132Z,27.70
2022-12-08T01:14:08.830Z,60.45
2022-12-08T01:16:37.509Z,89.47
2022-12-08T01:19:04.723Z,22.30
2022-12-08T01:21:31.893Z,28.52
2022-12-08T01:24:00.987Z,75.97
2022-12-08T01:26:28.235Z,121.32
2022-12-08T01:28:55.499Z,58.80
2022-12-08T01:31:23.658Z,105.97
2022-12-08T01:33:51.139Z,93.28
2022-12-08T01:36:27.271Z,62.35
2022-12-08T01:38:56.764Z,74.18
2022-12-08T01:41:26.667Z,162.88
2022-12-08T01:44:17.581Z,105.40
2022-12-08T01:46:48.580Z,69.57
2022-12-08T01:49:22.016Z,248.13
2022-12-08T01:52:13.549Z,324.23
2022-12-08T01:54:46.966Z,471.73
2022-12-08T01:57:32.022Z,137.15
2022-12-08T02:00:07.921Z,171.25
2022-12-08T02:02:48.338Z,98.82
2022-12-08T02:05:16.481Z,195.90
2022-12-08T02:07:44.888Z,46.13
2022-12-08T02:10:18.155Z,63.28
2022-12-08T02:12:46.302Z,35.88
2022-12-08T02:15:14.986Z,18.05
2022-12-08T02:18:15.620Z,16.65
2022-12-08T02:20:47.666Z,11.93
2022-12-08T02:23:23.401Z,14.13
2022-12-08T02:26:06.915Z,15.65
2022-12-08T02:29:02.079Z,12.00
2022-12-08T02:32:06.127Z,12.23
2022-12-08T02:34:53.478Z,10.27
2022-12-08T02:37:34.834Z,9.77
2022-12-08T02:40:37.203Z,9.50
2022-12-08T02:43:14.659Z,11.75
2022-12-08T02:45:51.053Z,10.45
2022-12-08T02:48:18.650Z,10.10
2022-12-08T02:50:45.800Z,8.25
2022-12-08T02:56:08.383Z,10.27
2022-12-08T02:59:02.483Z,10.20
2022-12-08T03:02:16.809Z,10.98
2022-12-08T03:05:22.901Z,9.70
2022-12-08T03:08:13.799Z,8.07
2022-12-08T03:11:05.951Z,8.32
2022-12-08T03:13:40.754Z,8.23
2022-12-08T03:16:11.392Z,9.60
2022-12-08T03:18:44.290Z,8.13
2022-12-08T03:21:14.298Z,6.93
2022-12-08T03:23:45.961Z,7.95
2022-12-08T03:26:54.374Z,8.60
2022-12-08T03:29:22.400Z,8.70
2022-12-08T03:32:08.018Z,7.72
2022-12-08T03:37:03.165Z,8.25
2022-12-08T03:39:30.515Z,9.02
2022-12-08T03:41:57.566Z,7.30
2022-12-08T03:44:24.757Z,7.03
2022-12-08T03:46:51.854Z,6.88
2022-12-08T03:49:19.106Z,8.52
2022-12-08T03:51:46.343Z,7.68
2022-12-08T03:54:13.683Z,7.53
2022-12-08T03:56:40.932Z,8.15
2022-12-08T03:59:09.371Z,7.95
2022-12-08T04:01:36.760Z,7.53
2022-12-08T04:04:04.188Z,8.05
2022-12-08T04:06:31.350Z,7.75
2022-12-08T04:08:58.586Z,7.78
2022-12-08T04:11:25.765Z,8.52
2022-12-08T04:13:52.811Z,6.93
2022-12-08T04:16:22.359Z,7.40
2022-12-08T04:18:49.657Z,7.20
2022-12-08T04:21:17.032Z,8.30
2022-12-08T04:23:45.110Z,6.15
2022-12-08T04:26:13.326Z,6.85
2022-12-08T04:28:40.604Z,7.45
2022-12-08T04:31:07.874Z,7.65
2022-12-08T04:33:35.643Z,6.65
2022-12-08T04:36:05.069Z,6.28
2022-12-08T04:38:32.688Z,5.60
2022-12-08T04:41:00.072Z,6.50
2022-12-08T04:43:27.293Z,6.82
2022-12-08T04:45:54.697Z,5.80
2022-12-08T04:48:21.923Z,6.35
2022-12-08T04:50:49.039Z,6.20
2022-12-08T04:53:16.314Z,7.35
2022-12-08T04:55:45.083Z,6.60
2022-12-08T04:58:22.733Z,7.00
2022-12-08T05:00:50.166Z,6.90
2022-12-08T05:03:21.381Z,8.25
2022-12-08T05:05:52.491Z,7.40
2022-12-08T05:08:19.800Z,6.10
2022-12-08T05:10:46.927Z,6.63
2022-12-08T05:13:14.118Z,8.23
2022-12-08T05:15:41.264Z,5.88
2022-12-08T05:18:11.533Z,5.90
2022-12-08T05:20:38.885Z,7.38
2022-12-08T05:23:06.090Z,6.75
2022-12-08T05:25:33.410Z,6.75
2022-12-08T05:28:24.555Z,6.35
2022-12-08T05:30:47.913Z,6.25
2022-12-08T05:33:15.301Z,5.80
2022-12-08T05:35:43.228Z,7.82
2022-12-08T05:38:12.112Z,6.70
2022-12-08T05:40:40.491Z,6.10
2022-12-08T05:43:07.755Z,6.43
2022-12-08T05:45:35.157Z,5.57
2022-12-08T05:48:02.426Z,7.88
2022-12-08T05:50:29.932Z,6.57
2022-12-08T05:52:57.374Z,6.38
2022-12-08T05:55:24.674Z,5.93
2022-12-08T05:57:51.927Z,6.80
2022-12-08T06:00:19.788Z,7.72
2022-12-08T06:02:47.420Z,7.72
2022-12-08T06:05:14.630Z,8.13
2022-12-08T06:07:42.072Z,6.65
2022-12-08T06:10:09.703Z,6.88
2022-12-08T06:12:36.786Z,6.88
2022-12-08T06:15:04.553Z,6.57
2022-12-08T06:17:31.806Z,6.13
2022-12-08T06:19:59.190Z,7.55
2022-12-08T06:22:26.221Z,7.13
2022-12-08T06:24:53.745Z,6.88
2022-12-08T06:27:21.011Z,6.40
2022-12-08T06:29:48.504Z,7.05
2022-12-08T06:32:16.147Z,41.08
2022-12-08T06:34:46.252Z,29.85
2022-12-08T06:37:13.389Z,125.32
2022-12-08T06:39:40.675Z,44.17
2022-12-08T06:42:26.524Z,53.10
2022-12-08T06:44:53.869Z,24.88
2022-12-08T06:47:26.325Z,13.02
2022-12-08T06:49:53.872Z,13.07
2022-12-08T06:52:21.294Z,16.98
2022-12-08T06:54:48.592Z,15.57
2022-12-08T06:57:15.728Z,17.00
2022-12-08T06:59:43.008Z,20.55
2022-12-08T07:02:10.900Z,13.00
2022-12-08T07:04:38.044Z,11.07
2022-12-08T07:07:05.149Z,25.73
2022-12-08T07:09:32.555Z,72.32
2022-12-08T07:11:59.708Z,46.75
2022-12-08T07:14:27.077Z,29.90
2022-12-08T07:16:54.523Z,59.15
2022-12-08T07:19:21.932Z,32.10
2022-12-08T07:21:49.200Z,82.75
2022-12-08T07:24:16.314Z,77.68
2022-12-08T07:26:43.390Z,150.38
2022-12-08T07:29:11.099Z,121.57
2022-12-08T07:31:38.266Z,131.20
2022-12-08T07:34:06.001Z,112.32
2022-12-08T07:36:33.449Z,210.75
2022-12-08T07:39:00.781Z,283.45
2022-12-08T07:41:28.116Z,212.52
2022-12-08T07:43:56.744Z,184.23
2022-12-08T07:46:25.844Z,120.18
2022-12-08T07:48:55.283Z,170.98
2022-12-08T07:51:23.155Z,145.90
2022-12-08T07:53:54.252Z,269.55
2022-12-08T07:56:22.733Z,260.58
2022-12-08T07:58:50.284Z,569.42
2022-12-08T08:01:27.123Z,337.20
2022-12-08T08:03:55.947Z,286.58
2022-12-08T08:06:23.884Z,142.10
2022-12-08T08:08:51.344Z,63.65
2022-12-08T08:11:21.599Z,30.10
2022-12-08T08:13:50.409Z,36.60
2022-12-08T08:16:18.752Z,29.35
2022-12-08T08:18:49.190Z,33.53
2022-12-08T08:21:43.795Z,11.75
2022-12-08T08:24:04.581Z,14.10
2022-12-08T08:26:31.766Z,9.63
2022-12-08T08:28:59.059Z,8.25
2022-12-08T08:31:27.372Z,8.32
2022-12-08T08:33:56.098Z,8.15
2022-12-08T08:36:23.316Z,6.68
2022-12-08T08:38:50.761Z,7.32
2022-12-08T08:41:18.535Z,8.35
2022-12-08T08:43:45.712Z,6.97
2022-12-08T08:46:13.061Z,6.32
2022-12-08T08:48:40.242Z,8.10
2022-12-08T08:51:10.802Z,8.57
2022-12-08T08:53:38.628Z,10.25
2022-12-08T08:56:11.151Z,10.82
2022-12-08T08:58:38.660Z,12.77
2022-12-08T09:01:06.362Z,10.88
2022-12-08T09:03:34.143Z,10.55
2022-12-08T09:06:01.603Z,9.07
2022-12-08T09:08:29.562Z,9.63
2022-12-08T09:10:57.275Z,8.98
2022-12-08T09:13:24.536Z,8.98
2022-12-08T09:15:51.797Z,8.07
2022-12-08T09:18:19.099Z,8.85
2022-12-08T09:20:46.327Z,8.82
2022-12-08T09:23:13.566Z,7.40
2022-12-08T09:25:43.861Z,8.00
2022-12-08T09:28:10.957Z,6.57
2022-12-08T09:30:38.323Z,7.13
2022-12-08T09:33:05.796Z,6.78
2022-12-08T09:35:33.934Z,6.88
2022-12-08T09:38:01.108Z,6.03
2022-12-08T09:40:33.431Z,6.20
2022-12-08T09:43:18.021Z,6.38
2022-12-08T09:45:45.859Z,5.88
2022-12-08T09:48:17.779Z,6.47
2022-12-08T09:50:53.879Z,6.57
2022-12-08T09:53:39.741Z,5.50
2022-12-08T09:56:16.028Z,6.65
2022-12-08T09:58:52.204Z,6.35
2022-12-08T10:01:21.536Z,6.60
2022-12-08T10:03:49.799Z,6.68
2022-12-08T10:06:25.047Z,6.68
2022-12-08T10:09:24.286Z,5.88
2022-12-08T10:12:05.464Z,5.20
2022-12-08T10:14:45.481Z,4.93
2022-12-08T10:17:25.806Z,5.47
2022-12-08T10:20:14.841Z,6.68
2022-12-08T10:22:44.892Z,5.50
2022-12-08T10:25:19.593Z,6.05
2022-12-08T10:27:53.869Z,6.03
2022-12-08T10:30:22.560Z,7.00
2022-12-08T10:32:51.886Z,6.55
2022-12-08T10:35:21.523Z,6.82
2022-12-08T10:38:04.118Z,6.20
2022-12-08T10:40:42.175Z,5.95
2022-12-08T10:43:21.729Z,7.00
2022-12-08T10:45:49.308Z,7.60
2022-12-08T10:48:27.315Z,7.03
2022-12-08T10:50:59.217Z,6.75
2022-12-08T10:53:29.411Z,8.27
2022-12-08T10:56:02.322Z,8.52
2022-12-08T10:58:36.621Z,8.63
2022-12-08T11:01:18.620Z,11.05
2022-12-08T11:03:53.186Z,10.50
2022-12-08T11:06:24.173Z,9.85
2022-12-08T11:08:54.699Z,10.65
2022-12-08T11:11:36.952Z,10.50
2022-12-08T11:14:08.736Z,9.68
2022-12-08T11:16:36.694Z,10.23
2022-12-08T11:19:08.247Z,10.10
2022-12-08T11:21:37.759Z,9.30
2022-12-08T11:24:37.662Z,6.90
2022-12-08T11:27:11.522Z,7.30
2022-12-08T11:29:38.752Z,6.88
2022-12-08T11:32:13.506Z,7.03
2022-12-08T11:34:49.776Z,5.40
2022-12-08T11:37:36.136Z,5.88
2022-12-08T11:40:36.072Z,6.53
2022-12-08T11:43:35.283Z,5.70
2022-12-08T11:46:12.750Z,6.72
2022-12-08T11:48:49.585Z,7.18
2022-12-08T11:51:32.451Z,6.43
2022-12-08T11:54:21.475Z,5.82
2022-12-08T11:56:53.712Z,7.88
2022-12-08T11:59:32.001Z,6.90
2022-12-08T12:02:02.069Z,7.05
2022-12-08T12:04:53.598Z,6.80
2022-12-08T12:07:58.454Z,6.00
2022-12-08T12:11:03.370Z,6.55
2022-12-08T12:13:38.460Z,5.65
2022-12-08T12:16:52.376Z,5.65
2022-12-08T12:19:25.380Z,4.80
2022-12-08T12:22:14.079Z,6.63
2022-12-08T12:24:46.015Z,7.32
2022-12-08T12:27:13.107Z,7.10
2022-12-08T12:29:55.487Z,8.10
2022-12-08T12:32:24.880Z,8.27
2022-12-08T12:35:01.613Z,7.90
2022-12-08T12:37:39.079Z,7.32
2022-12-08T12:40:22.799Z,7.88
2022-12-08T12:42:56.095Z,7.95
2022-12-08T12:45:28.472Z,6.45
2022-12-08T12:48:01.252Z,6.43
2022-12-08T12:50:34.711Z,6.20
2022-12-08T12:53:10.656Z,5.63
2022-12-08T12:55:46.918Z,5.93
2022-12-08T12:58:27.829Z,6.28
2022-12-08T13:01:36.857Z,5.80
2022-12-08T13:04:11.310Z,5.97
2022-12-08T13:06:43.585Z,4.22
2022-12-08T13:09:41.765Z,4.45
2022-12-08T13:12:12.666Z,4.00
2022-12-08T13:14:49.393Z,4.38
2022-12-08T13:17:37.689Z,4.07
2022-12-08T13:20:07.742Z,3.65
2022-12-08T13:22:59.247Z,5.30
2022-12-08T13:25:47.182Z,5.25
2022-12-08T13:28:39.741Z,4.80
2022-12-08T13:31:52.993Z,5.95
2022-12-08T13:34:51.169Z,7.18
2022-12-08T13:37:32.816Z,7.13
2022-12-08T13:40:08.813Z,7.15
2022-12-08T13:42:50.257Z,6.95
2022-12-08T13:49:45.348Z,8.20
2022-12-08T13:59:44.731Z,6.28
2022-12-08T14:02:39.591Z,6.40
2022-12-08T14:05:17.958Z,6.30
2022-12-08T14:07:48.637Z,6.30
2022-12-08T14:10:24.911Z,6.20
2022-12-08T14:13:12.667Z,7.22
2022-12-08T14:15:40.939Z,6.68
2022-12-08T14:18:24.158Z,7.07
2022-12-08T14:21:22.229Z,6.13
2022-12-08T14:23:49.700Z,5.43
2022-12-08T14:26:18.251Z,7.32
2022-12-08T14:28:45.701Z,5.93
2022-12-08T14:31:14.939Z,6.45
2022-12-08T14:33:42.845Z,5.82
2022-12-08T14:36:11.271Z,6.57
2022-12-08T14:38:38.574Z,6.25
2022-12-08T14:41:12.000Z,6.43
2022-12-08T14:43:41.190Z,6.38
2022-12-08T14:46:23.290Z,6.55
2022-12-08T14:48:50.728Z,5.88
2022-12-08T14:51:23.758Z,7.28
2022-12-08T14:53:59.059Z,5.88
2022-12-08T14:56:40.251Z,5.38
2022-12-08T14:59:35.612Z,5.78
2022-12-08T15:02:26.803Z,5.90
2022-12-08T15:05:04.903Z,43.42
2022-12-08T15:07:45.268Z,7.78
2022-12-08T15:10:23.109Z,7.13
2022-12-08T15:13:22.948Z,6.47
2022-12-08T15:15:57.168Z,5.20
2022-12-08T15:18:38.967Z,6.03
2022-12-08T15:21:09.442Z,5.82
2022-12-08T15:23:45.412Z,5.85
2022-12-08T15:26:28.221Z,6.07
2022-12-08T15:28:56.833Z,6.20
2022-12-08T15:31:24.092Z,6.47
2022-12-08T15:33:51.408Z,7.70
2022-12-08T15:36:18.743Z,6.85
2022-12-08T15:38:46.205Z,5.68
2022-12-08T15:41:15.329Z,5.82
2022-12-08T15:43:42.922Z,7.15
2022-12-08T15:46:10.377Z,7.13
2022-12-08T15:48:38.454Z,7.20
2022-12-08T15:51:05.543Z,8.43
2022-12-08T15:53:32.675Z,8.35
2022-12-08T16:01:25.894Z,8.85
2022-12-08T16:07:20.267Z,8.40
2022-12-08T16:09:42.544Z,6.25
2022-12-08T16:18:28.690Z,8.27
2022-12-08T16:23:44.960Z,6.22
2022-12-08T16:27:00.967Z,8.57
2022-12-08T16:29:07.708Z,9.30
2022-12-08T16:31:35.171Z,8.07
2022-12-08T16:34:02.356Z,16.75
2022-12-08T16:36:29.790Z,14.65
2022-12-08T16:38:56.960Z,12.23
2022-12-08T16:41:42.563Z,10.70
2022-12-08T16:46:37.259Z,7.35
2022-12-08T16:49:08.130Z,6.38
2022-12-08T16:51:35.469Z,8.90
2022-12-08T16:54:02.846Z,8.73
2022-12-08T16:56:33.237Z,8.52
2022-12-08T16:59:02.211Z,7.93
2022-12-08T17:01:29.845Z,7.72
2022-12-08T17:04:22.968Z,6.88
2022-12-08T17:06:44.370Z,7.55
2022-12-08T17:09:11.611Z,7.50
2022-12-08T17:11:43.027Z,8.10
2022-12-08T17:14:12.235Z,9.27
2022-12-08T17:16:39.753Z,8.68
2022-12-08T17:19:07.120Z,7.95
2022-12-08T17:21:34.389Z,18.83
2022-12-08T17:24:01.723Z,13.25
2022-12-08T17:26:28.881Z,9.90
2022-12-08T17:29:00.919Z,11.15
2022-12-08T17:31:30.877Z,9.73
2022-12-08T17:34:02.492Z,8.98
2022-12-08T17:36:30.136Z,9.57
2022-12-08T17:38:59.965Z,11.27
2022-12-08T17:41:27.756Z,10.75
2022-12-08T17:43:55.066Z,9.00
2022-12-08T17:46:23.373Z,8.43
2022-12-08T17:48:50.825Z,9.35
2022-12-08T17:51:18.431Z,9.23
2022-12-08T17:53:45.869Z,14.43
2022-12-08T17:56:22.049Z,10.30
2022-12-08T17:58:54.213Z,10.32
2022-12-08T18:01:22.666Z,9.02
2022-12-08T18:03:50.106Z,9.02
2022-12-08T18:06:20.086Z,11.75
2022-12-08T18:08:47.458Z,9.70
2022-12-08T18:11:19.423Z,9.13
2022-12-08T18:13:48.783Z,12.45
2022-12-08T18:16:17.926Z,13.32
2022-12-08T18:18:48.720Z,10.80
2022-12-08T18:21:23.109Z,10.95
2022-12-08T18:23:51.307Z,9.38
2022-12-08T18:26:18.647Z,10.30
2022-12-08T18:28:45.923Z,12.07
2022-12-08T18:31:16.535Z,14.77
2022-12-08T18:33:45.593Z,12.13
2022-12-08T18:36:19.964Z,14.43
2022-12-08T18:38:47.461Z,11.82
2022-12-08T18:41:18.131Z,12.55
2022-12-08T18:43:46.066Z,17.42
2022-12-08T18:46:14.547Z,21.40
2022-12-08T18:48:45.532Z,23.02
2022-12-08T18:51:15.333Z,13.55
2022-12-08T18:53:44.260Z,15.75
2022-12-08T18:56:29.193Z,15.27
2022-12-08T18:59:02.786Z,22.10
2022-12-08T19:01:31.725Z,12.80
2022-12-08T19:04:27.297Z,11.10
2022-12-08T19:06:51.961Z,12.10
2022-12-08T19:09:19.640Z,12.13
2022-12-08T19:11:46.980Z,11.45
2022-12-08T19:14:14.237Z,11.10
2022-12-08T19:16:41.440Z,10.55
2022-12-08T19:19:08.634Z,10.27
2022-12-08T19:21:36.887Z,10.63
2022-12-08T19:24:07.024Z,11.00
2022-12-08T19:26:34.677Z,11.88
2022-12-08T19:29:01.823Z,13.10
2022-12-08T19:31:29.171Z,10.65
2022-12-08T19:33:57.427Z,11.85
2022-12-08T19:36:25.210Z,10.68
2022-12-08T19:39:11.243Z,12.85
2022-12-08T19:41:57.423Z,11.95
2022-12-08T19:44:45.271Z,13.60
2022-12-08T19:47:12.571Z,13.20
2022-12-08T19:49:39.907Z,13.40
2022-12-08T19:52:07.541Z,12.82
2022-12-08T19:54:34.964Z,12.90
2022-12-08T19:57:02.240Z,12.45
2022-12-08T19:59:30.621Z,11.82
2022-12-08T20:01:59.007Z,12.38
2022-12-08T20:04:27.825Z,12.70
2022-12-08T20:06:56.947Z,11.90
2022-12-08T20:09:25.105Z,11.93
2022-12-08T20:11:54.916Z,10.80
2022-12-08T20:14:23.700Z,12.65
2022-12-08T20:16:51.367Z,13.40
2022-12-08T20:19:18.863Z,10.90
2022-12-08T20:21:46.235Z,13.05
2022-12-08T20:24:13.483Z,12.70
2022-12-08T20:26:43.052Z,12.20
2022-12-08T20:29:10.264Z,10.65
2022-12-08T20:31:37.466Z,10.65
2022-12-08T20:34:04.940Z,11.73
2022-12-08T20:36:32.274Z,11.60
2022-12-08T20:38:59.866Z,10.88
2022-12-08T20:41:27.079Z,11.30
2022-12-08T20:43:54.490Z,12.45
2022-12-08T20:46:22.091Z,11.45
2022-12-08T20:48:49.463Z,14.38
2022-12-08T20:51:18.543Z,10.18
2022-12-08T20:53:46.101Z,12.88
2022-12-08T20:56:18.351Z,14.15
2022-12-08T20:58:46.062Z,13.07
2022-12-08T21:01:16.133Z,12.80
2022-12-08T21:03:45.589Z,14.02
2022-12-08T21:06:13.599Z,10.50
2022-12-08T21:08:41.984Z,11.52
2022-12-08T21:11:10.744Z,12.75
2022-12-08T21:13:39.082Z,13.30
2022-12-08T21:16:09.283Z,12.80
2022-12-08T21:18:39.749Z,13.23
2022-12-08T21:21:12.671Z,13.85
2022-12-08T21:23:40.830Z,12.38
2022-12-08T21:26:19.672Z,14.35
2022-12-08T21:28:48.009Z,12.93
2022-12-08T21:31:17.888Z,12.90
2022-12-08T21:33:45.779Z,11.88
2022-12-08T21:36:16.179Z,14.10
2022-12-08T21:38:44.228Z,14.43
2022-12-08T21:41:40.266Z,12.88
2022-12-08T21:44:10.331Z,14.00
2022-12-08T21:46:38.243Z,15.82
2022-12-08T21:49:06.048Z,13.80
2022-12-08T21:51:35.187Z,14.15
2022-12-08T21:54:03.034Z,12.25
2022-12-08T21:56:30.411Z,13.48
2022-12-08T21:58:57.766Z,13.13
2022-12-08T22:01:25.273Z,13.70
2022-12-08T22:03:52.811Z,15.65
2022-12-08T22:06:20.707Z,13.70
2022-12-08T22:08:48.206Z,14.45
2022-12-08T22:11:15.862Z,13.82
2022-12-08T22:13:43.126Z,14.60
2022-12-08T22:16:12.692Z,13.63
2022-12-08T22:18:40.096Z,15.15
2022-12-08T22:21:13.957Z,15.93
2022-12-08T22:23:41.735Z,13.73
2022-12-08T22:26:09.818Z,14.90
2022-12-08T22:28:42.959Z,14.18
2022-12-08T22:31:15.606Z,14.13
2022-12-08T22:33:43.773Z,14.98
2022-12-08T22:36:22.391Z,15.75
2022-12-08T22:38:50.662Z,15.90
2022-12-08T22:41:19.254Z,14.07
2022-12-08T22:43:47.930Z,15.10
2022-12-08T22:46:18.195Z,14.10
2022-12-08T22:48:45.786Z,15.50
2022-12-08T22:51:13.977Z,16.33
2022-12-08T22:53:41.542Z,13.82
2022-12-08T22:56:11.115Z,13.90
2022-12-08T22:58:40.382Z,16.88
2022-12-08T23:01:08.477Z,16.30
2022-12-08T23:03:36.073Z,15.38
2022-12-08T23:06:13.028Z,15.65
2022-12-08T23:08:40.721Z,14.70
2022-12-08T23:11:08.161Z,16.10
2022-12-08T23:13:35.272Z,17.10
2022-12-08T23:16:02.442Z,15.68
2022-12-08T23:18:29.638Z,18.42
2022-12-08T23:20:56.742Z,17.95
2022-12-08T23:23:23.919Z,15.95
2022-12-08T23:25:51.020Z,19.20
2022-12-08T23:28:18.138Z,26.80
2022-12-08T23:30:45.685Z,24.85
2022-12-08T23:33:13.318Z,21.00
2022-12-08T23:35:40.603Z,20.85
2022-12-08T23:38:07.622Z,15.20
2022-12-08T23:40:35.159Z,17.98
2022-12-08T23:43:02.360Z,20.70
2022-12-08T23:45:29.695Z,15.88
2022-12-08T23:47:57.068Z,19.52
2022-12-08T23:50:24.376Z,17.58
2022-12-08T23:52:51.388Z,18.55
2022-12-08T23:55:18.649Z,17.08
2022-12-08T23:57:46.004Z,16.80
